Effective Sunday, March 17, 2024, the National Weather Service National Data Buoy Center will discontinue its Dial-A-Buoy Interactive Voice Response system. For more information, see Service Change Notice 24-06 (PDF).

Station PTLA2 - Portland Island, AK Image indicating link to RSS feed of recent meteorological observations for station PTLA2


Conditions at PTLA2 as of
(11:32 am AKST)
2032 GMT on 03/02/2024:
     

Click on the graph icon in the table below to see a time series plot of the last five days of that observation.

5-day plot - Wind Direction Wind Direction (WDIR): E ( 80 deg true )
5-day plot - Wind Speed Wind Speed (WSPD): 17.1 kts
5-day plot - Wind Gust Wind Gust (GST): 22.0 kts
5-day plot - Air Temperature Air Temperature (ATMP): 19.9 °F
5-day plot - Dew Point Dew Point (DEWP): 5.4 °F
5-day plot - Wind Chill Wind Chill (CHILL): 4.3 °F
5-day plot - Wind Speed at 10 Meters Wind Speed at 10 meters (WSPD10M): 19.4 kts
5-day plot - Wind Speed at 20 Meters Wind Speed at 20 meters (WSPD20M): 21.4 kts
5-day plot -  Wind Speed, Wind Gust and Atmospheric Pressure Combined plot of Wind Speed, Gust, and Air Pressure
Previous observations
TIME
(AKST)
5-day plot - Wind Direction
WDIR
 
5-day plot - Wind Speed
WSPD
kts
5-day plot - Wind Gust
GST
kts
5-day plot - Wave Height
WVHT
ft
5-day plot - Dominant Wave Period
DPD
sec
5-day plot - Average Wave Period
APD
sec
5-day plot - Mean Wave Direction
MWD
 
5-day plot - Atmospheric Pressure
PRES
in
5-day plot - Pressure Tendency
PTDY
in
5-day plot - Air Temperature
ATMP
°F
5-day plot - Water Temperature
WTMP
°F
5-day plot - Dew Point
DEWP
°F
5-day plot - Salinity
SAL
psu
5-day plot - Visibility
VIS
nmi
5-day plot - Tide (above MLLW)
TIDE
ft
2024-03-02 11:22 am E 18.1 25.1------ 19.9- 5.5---
2024-03-02 11:12 am E 19.0 26.0------ 19.9- 5.7---
2024-03-02 11:02 am E 17.1 25.1------ 19.9- 5.5---
2024-03-02 10:52 am E 18.1 26.0------ 19.8- 5.0---
2024-03-02 10:42 am E 19.0 27.0------ 19.8- 5.2---
2024-03-02 10:32 am E 18.1 24.1------ 19.8- 5.5---
2024-03-02 10:22 am E 18.1 24.1------ 19.9- 5.7---
2024-03-02 10:12 am E 20.0 28.0------ 19.9- 5.7---
2024-03-02 10:02 am E 18.1 28.0------ 19.9- 5.7---
2024-03-02 09:52 am E 17.1 25.1------ 19.9- 5.7---
2024-03-02 09:42 am E 17.1 25.1------ 19.8- 5.5---
2024-03-02 09:32 am E 18.1 22.9------ 19.6- 5.4---
2024-03-02 09:22 am E 15.0 22.9------ 19.6- 4.5---
2024-03-02 09:12 amENE 12.0 25.1------ 19.6- 2.8---
2024-03-02 09:02 am E 12.0 21.0------ 19.6- 3.9---
2024-03-02 08:52 amENE 15.0 22.0------ 19.6- 5.0---
2024-03-02 08:42 amENE 13.0 22.9------ 19.8- 5.4---
2024-03-02 08:32 amENE 12.0 25.1------ 19.4- 3.2---
2024-03-02 08:22 amENE 13.0 20.0------ 19.4- 3.9---
2024-03-02 08:12 amENE 15.0 22.9------ 19.4- 5.0---
2024-03-02 08:02 am E 13.0 22.0------ 19.4- 3.9---
2024-03-02 07:52 am E 14.0 22.0------ 19.6- 4.6---
2024-03-02 07:42 am E 15.9 22.0------ 19.4- 5.4---
2024-03-02 07:32 amENE 14.0 19.0------ 19.2- 5.2---
2024-03-02 07:22 amENE 12.0 21.0------ 19.2- 3.6---
2024-03-02 07:12 amENE 14.0 21.0------ 19.4- 4.5---
2024-03-02 07:02 amENE 13.0 22.0------ 19.6- 5.4---
2024-03-02 06:52 amENE 15.9 21.0------ 19.6- 5.5---
2024-03-02 06:42 amENE 13.0 20.0------ 19.4- 4.5---
2024-03-02 06:32 amENE 13.0 24.1------ 19.8- 5.7---
2024-03-02 06:22 amENE 15.9 22.9------ 19.8- 5.7---
2024-03-02 06:12 amENE 13.0 21.0------ 19.9- 5.5---
2024-03-02 06:02 amENE 13.0 19.0------ 19.8- 4.6---
2024-03-02 05:52 am E 13.0 18.1------ 19.9- 5.0---
2024-03-02 05:42 am NE 8.9 18.1------ 19.8- 3.2---
2024-03-02 05:32 amENE 13.0 21.0------ 19.9- 5.2---
2024-03-02 05:22 amENE 14.0 22.0------ 19.9- 5.0---
2024-03-02 05:12 amENE 15.0 22.9------ 20.1- 5.5---
2024-03-02 05:02 amENE 15.9 26.0------ 20.1- 5.5---
2024-03-02 04:52 amENE 15.0 22.9------ 20.5- 5.7---
2024-03-02 04:42 amENE 15.0 22.9------ 20.7- 5.7---
2024-03-02 04:32 amENE 15.9 22.9------ 20.8- 6.4---
2024-03-02 04:22 amENE 9.9 19.0------ 20.3- 3.2---
2024-03-02 04:12 amENE 13.0 19.0------ 20.5- 4.6---
2024-03-02 04:02 amENE 12.0 19.0------ 20.8- 6.1---
2024-03-02 03:52 amENE 12.0 20.0------ 21.0- 6.3---
2024-03-02 03:42 am E 15.0 24.1------ 21.2- 7.0---
2024-03-02 03:32 amENE 14.0 20.0------ 20.8- 5.7---
2024-03-02 03:22 amENE 13.0 19.0------ 21.0- 5.7---
2024-03-02 03:12 amENE 9.9 17.1------ 20.8- 5.0---
2024-03-02 03:02 amENE 11.1 15.9------ 20.8- 5.5---
2024-03-02 02:52 am NE 9.9 15.9------ 20.8- 4.6---
2024-03-02 02:42 amENE 11.1 17.1------ 21.2- 4.8---
2024-03-02 02:32 am NE 8.0 15.9------ 21.2- 4.1---
2024-03-02 02:22 am E 8.9 17.1------ 21.2- 3.7---
2024-03-02 02:12 amENE 9.9 19.0------ 21.4- 4.6---
2024-03-02 02:02 amENE 8.9 15.0------ 21.4- 4.8---
2024-03-02 01:52 amENE 7.0 14.0------ 21.4- 4.3---
2024-03-02 01:42 amENE 6.0 13.0------ 21.4- 4.1---
2024-03-02 01:32 amENE 6.0 15.0------ 21.4- 3.6---
2024-03-02 01:22 amENE 6.0 15.9------ 21.7- 4.3---
2024-03-02 01:12 am E 8.0 13.0------ 21.7- 4.3---
2024-03-02 01:02 am E 6.0 11.1------ 21.7- 4.6---
2024-03-02 12:52 am E 5.1 12.0------ 22.1- 5.2---
2024-03-02 12:42 am E 6.0 11.1------ 21.9- 3.4---
2024-03-02 12:32 am E 7.0 11.1------ 22.1- 4.5---
2024-03-02 12:22 amENE 7.0 13.0------ 22.3- 5.2---
2024-03-02 12:12 amENE 8.0 13.0------ 22.3- 5.4---
2024-03-02 12:02 am E 5.1 11.1------ 22.3- 4.6---
2024-03-01 11:52 pm NE 6.0 9.9------ 22.1- 4.8---
2024-03-01 11:42 pm NE 7.0 12.0------ 22.1- 4.1---
2024-03-01 11:32 pmENE 8.9 13.0------ 22.5- 5.4---
2024-03-01 11:22 pmENE 8.9 13.0------ 22.6- 6.4---
2024-03-01 11:12 pmENE 9.9 17.1------ 22.6- 6.6---
2024-03-01 11:02 pm E 9.9 19.0------ 22.5- 6.3---
2024-03-01 10:52 pm E 11.1 20.0------ 22.8- 7.2---
2024-03-01 10:42 pmENE 11.1 17.1------ 22.6- 6.1---
2024-03-01 10:32 pmENE 11.1 17.1------ 22.6- 6.3---
2024-03-01 10:22 pmENE 8.9 17.1------ 22.6- 5.9---
2024-03-01 10:12 pmENE 11.1 15.9------ 22.6- 7.0---
2024-03-01 10:02 pm E 11.1 19.0------ 22.6- 6.3---
2024-03-01 09:52 pm E 13.0 22.0------ 22.6- 6.4---
2024-03-01 09:42 pmENE 13.0 20.0------ 22.6- 6.6---
2024-03-01 09:32 pmENE 11.1 17.1------ 23.0- 7.3---
2024-03-01 09:22 pmENE 12.0 18.1------ 22.8- 7.0---
2024-03-01 09:12 pmENE 8.9 14.0------ 22.6- 6.3---
2024-03-01 09:02 pmENE 11.1 15.9------ 22.6- 7.2---
2024-03-01 08:52 pmENE 12.0 17.1------ 22.8- 6.8---
2024-03-01 08:42 pm E 13.0 18.1------ 23.0- 7.0---
2024-03-01 08:32 pm E 12.0 20.0------ 22.8- 6.4---
2024-03-01 08:22 pmENE 12.0 17.1------ 23.0- 6.4---
2024-03-01 08:12 pm E 15.0 22.9------ 23.0- 7.0---
2024-03-01 08:02 pmENE 14.0 20.0------ 23.2- 7.7---
2024-03-01 07:52 pm E 13.0 19.0------ 22.8- 6.4---
2024-03-01 07:42 pm E 14.0 21.0------ 23.2- 7.5---
2024-03-01 07:32 pmENE 12.0 22.0------ 23.2- 7.7---
2024-03-01 07:22 pmENE 14.0 21.0------ 23.5- 8.4---
2024-03-01 07:12 pmENE 14.0 20.0------ 23.4- 8.4---
2024-03-01 07:02 pmENE 14.0 20.0------ 23.4- 7.9---
2024-03-01 06:52 pmENE 8.0 12.0------ 23.2- 5.9---
2024-03-01 06:42 pm E 11.1 18.1------ 23.4- 6.6---
2024-03-01 06:32 pm E 13.0 21.0------ 23.7- 7.2---
2024-03-01 06:22 pm E 14.0 24.1------ 23.9- 9.3---
2024-03-01 06:12 pmENE 15.9 21.0------ 23.9- 8.8---
2024-03-01 06:02 pmENE 15.0 21.0------ 23.9- 9.1---
2024-03-01 05:52 pm E 17.1 26.0------ 24.3- 9.3---
2024-03-01 05:42 pm E 14.0 19.0------ 23.9- 7.7---
2024-03-01 05:32 pm E 17.1 22.0------ 24.1- 7.5---
2024-03-01 05:22 pm E 15.9 22.0------ 24.4- 9.0---
2024-03-01 05:12 pm E 15.0 24.1------ 24.6- 8.8---
2024-03-01 05:02 pm E 15.0 22.9------ 24.8- 9.5---
2024-03-01 04:52 pm E 15.0 22.0------ 25.0- 9.3---
2024-03-01 04:42 pm E 15.9 22.9------ 25.2- 9.3---
2024-03-01 04:32 pm E 14.0 21.0------ 25.2- 9.1---
2024-03-01 04:22 pmENE 13.0 22.0------ 25.3- 9.9---
2024-03-01 04:12 pm E 13.0 19.0------ 25.3- 9.5---
2024-03-01 04:02 pm E 15.0 21.0------ 25.3- 9.0---
2024-03-01 03:52 pm E 14.0 22.0------ 25.3- 9.1---
2024-03-01 03:42 pm E 13.0 21.0------ 25.5- 9.7---
2024-03-01 03:32 pmENE 12.0 20.0------ 25.3- 8.2---
2024-03-01 03:22 pmENE 12.0 20.0------ 25.5- 8.8---
2024-03-01 03:12 pmENE 9.9 17.1------ 25.7- 8.4---
2024-03-01 02:52 pmENE 8.9 17.1------ 26.2- 10.0---
2024-03-01 02:42 pmENE 8.9 19.0------ 26.4- 10.4---
2024-03-01 02:32 pmENE 11.1 18.1------ 26.1- 9.1---
2024-03-01 02:22 pm NE 9.9 22.9------ 26.4- 10.9---
2024-03-01 02:12 pm NE 8.9 20.0------ 26.8- 11.5---
2024-03-01 02:02 pmENE 8.9 17.1------ 26.4- 9.7---
2024-03-01 01:52 pm E 9.9 15.0------ 26.1- 8.4---
2024-03-01 01:42 pm NE 8.9 25.1------ 26.4- 9.9---
2024-03-01 01:32 pm E 7.0 15.0------ 26.4- 8.8---
2024-03-01 01:22 pm E 7.0 14.0------ 26.4- 9.1---
2024-03-01 01:12 pmENE 5.1 14.0------ 26.8- 10.6---
2024-03-01 01:02 pm N 6.0 14.0------ 26.6- 8.8---
2024-03-01 12:52 pmENE 5.1 8.9------ 27.3- 9.0---
2024-03-01 12:42 pm E 7.0 15.0------ 27.0- 9.7---
2024-03-01 12:32 pm NE 5.1 11.1------ 26.8- 10.0---
2024-03-01 12:22 pm N 12.0 25.1------ 26.1- 12.2---
2024-03-01 12:12 pmNNW 14.0 26.0------ 26.4- 13.5---
2024-03-01 12:02 pmNNE 9.9 19.0------ 26.6- 10.9---
2024-03-01 11:52 am N 5.1 15.0------ 27.3- 8.2---
2024-03-01 11:42 amESE 4.1 8.0------ 27.9- 8.4---
2024-03-01 11:32 amENE 5.1 15.0------ 27.3- 9.1---
2024-03-01 11:22 amNNE 2.9 8.9------ 27.1- 7.2---
2024-03-01 11:12 am N 6.0 13.0------ 26.1- 9.0---
2024-03-01 11:02 am N 4.1 7.0------ 26.2- 9.7---
2024-03-01 10:52 am N 6.0 12.0------ 25.5- 10.0---